createdAt,value
2022-12-22T00:00:02.127Z,7.20
2022-12-22T00:02:47.379Z,7.15
2022-12-22T00:05:32.522Z,7.21
2022-12-22T00:08:17.239Z,7.27
2022-12-22T00:11:01.912Z,7.34
2022-12-22T00:13:46.718Z,7.37
2022-12-22T00:16:31.510Z,7.48
2022-12-22T00:19:16.343Z,7.49
2022-12-22T00:22:01.148Z,7.40
2022-12-22T00:24:45.975Z,7.31
2022-12-22T00:27:30.555Z,7.20
2022-12-22T00:30:15.290Z,7.14
2022-12-22T00:33:00.059Z,7.16
2022-12-22T00:35:44.871Z,7.23
2022-12-22T00:38:29.580Z,7.28
2022-12-22T00:41:14.324Z,7.37
2022-12-22T00:43:59.110Z,7.28
2022-12-22T00:46:43.983Z,7.24
2022-12-22T00:49:29.122Z,7.21
2022-12-22T00:52:13.828Z,7.15
2022-12-22T00:54:58.656Z,7.13
2022-12-22T00:57:43.881Z,7.16
2022-12-22T01:00:28.592Z,7.12
2022-12-22T01:03:13.411Z,7.12
2022-12-22T01:05:58.596Z,7.22
2022-12-22T01:08:43.325Z,7.34
2022-12-22T01:11:28.072Z,7.42
2022-12-22T01:14:12.871Z,7.46
2022-12-22T01:16:57.576Z,7.50
2022-12-22T01:19:42.421Z,7.53
2022-12-22T01:22:27.175Z,7.57
2022-12-22T01:25:12.160Z,7.65
2022-12-22T01:27:57.020Z,7.63
2022-12-22T01:30:41.713Z,7.58
2022-12-22T01:33:26.389Z,7.57
2022-12-22T01:36:11.076Z,7.44
2022-12-22T01:38:55.813Z,7.38
2022-12-22T01:41:40.385Z,7.30
2022-12-22T01:44:25.161Z,7.23
2022-12-22T01:47:09.949Z,7.22
2022-12-22T01:49:54.777Z,7.36
2022-12-22T01:52:39.524Z,7.44
2022-12-22T01:55:24.268Z,7.44
2022-12-22T01:58:08.881Z,7.38
2022-12-22T02:00:53.598Z,7.37
2022-12-22T02:03:38.560Z,7.36
2022-12-22T02:06:23.131Z,7.32
2022-12-22T02:09:07.930Z,7.46
2022-12-22T02:11:52.506Z,7.57
2022-12-22T02:14:37.338Z,7.54
2022-12-22T02:17:21.988Z,7.49
2022-12-22T02:20:06.904Z,7.52
2022-12-22T02:22:51.513Z,7.37
2022-12-22T02:25:36.175Z,7.38
2022-12-22T02:28:20.868Z,7.35
2022-12-22T02:31:05.706Z,7.34
2022-12-22T02:33:50.534Z,7.38
2022-12-22T02:36:35.230Z,7.31
2022-12-22T02:39:20.027Z,7.27
2022-12-22T02:42:04.672Z,7.31
2022-12-22T02:44:49.550Z,7.42
2022-12-22T02:47:34.240Z,7.45
2022-12-22T02:50:19.020Z,7.47
2022-12-22T02:53:03.800Z,7.40
2022-12-22T02:55:48.542Z,7.25
2022-12-22T02:58:33.851Z,7.27
2022-12-22T03:01:18.622Z,7.21
2022-12-22T03:04:03.439Z,7.18
2022-12-22T03:06:48.275Z,7.11
2022-12-22T03:09:33.035Z,7.16
2022-12-22T03:12:17.722Z,7.18
2022-12-22T03:15:02.714Z,7.19
2022-12-22T03:17:47.387Z,7.30
2022-12-22T03:20:32.054Z,7.26
2022-12-22T03:23:16.739Z,7.21
2022-12-22T03:26:01.537Z,7.24
2022-12-22T03:28:46.217Z,7.27
2022-12-22T03:31:31.240Z,7.35
2022-12-22T03:34:16.317Z,7.36
2022-12-22T03:37:01.031Z,7.40
2022-12-22T03:39:45.819Z,7.37
2022-12-22T03:42:30.604Z,7.34
2022-12-22T03:45:15.530Z,7.37
2022-12-22T03:48:00.150Z,7.37
2022-12-22T03:50:44.828Z,7.31
2022-12-22T03:53:29.445Z,7.30
2022-12-22T03:56:14.180Z,7.27
2022-12-22T03:58:59.024Z,7.24
2022-12-22T04:01:43.730Z,7.22
2022-12-22T04:04:28.697Z,7.22
2022-12-22T04:07:13.486Z,7.15
2022-12-22T04:09:58.246Z,7.16
2022-12-22T04:12:42.983Z,7.10
2022-12-22T04:15:27.799Z,6.94
2022-12-22T04:18:12.549Z,6.93
2022-12-22T04:20:57.309Z,6.99
2022-12-22T04:23:42.060Z,7.02
2022-12-22T04:26:26.757Z,7.01
2022-12-22T04:29:11.481Z,7.05
2022-12-22T04:31:56.289Z,7.07
2022-12-22T04:34:41.516Z,7.12
2022-12-22T04:37:26.266Z,7.17
2022-12-22T04:40:11.071Z,7.15
2022-12-22T04:42:55.639Z,7.08
2022-12-22T04:45:40.471Z,6.99
2022-12-22T04:48:25.067Z,7.02
2022-12-22T04:51:09.836Z,6.99
2022-12-22T04:53:54.436Z,6.94
2022-12-22T04:56:39.157Z,6.81
2022-12-22T04:59:23.848Z,6.78
2022-12-22T05:02:08.897Z,6.69
2022-12-22T05:04:54.102Z,6.72
2022-12-22T05:07:38.885Z,6.77
2022-12-22T05:10:23.654Z,6.76
2022-12-22T05:13:08.321Z,6.76
2022-12-22T05:15:53.206Z,6.74
2022-12-22T05:18:38.081Z,6.75
2022-12-22T05:21:22.791Z,6.76
2022-12-22T05:24:07.547Z,6.83
2022-12-22T05:26:52.279Z,6.92
2022-12-22T05:29:37.192Z,6.92
2022-12-22T05:32:21.985Z,6.94
2022-12-22T05:35:06.970Z,6.96
2022-12-22T05:37:51.680Z,7.00
2022-12-22T05:40:36.351Z,7.03
2022-12-22T05:43:21.033Z,7.01
2022-12-22T05:46:05.890Z,6.97
2022-12-22T05:48:50.472Z,6.99
2022-12-22T05:51:35.139Z,7.05
2022-12-22T05:54:19.829Z,7.06
2022-12-22T05:57:04.628Z,7.10
2022-12-22T05:59:49.259Z,7.09
2022-12-22T06:02:34.140Z,7.10
2022-12-22T06:05:19.369Z,7.03
2022-12-22T06:08:04.064Z,7.10
2022-12-22T06:10:48.856Z,7.05
2022-12-22T06:13:33.526Z,7.05
2022-12-22T06:16:18.376Z,7.01
2022-12-22T06:19:02.993Z,6.97
2022-12-22T06:21:47.860Z,7.01
2022-12-22T06:24:32.769Z,7.03
2022-12-22T06:27:17.557Z,7.00
2022-12-22T06:30:02.429Z,7.03
2022-12-22T06:32:47.154Z,7.12
2022-12-22T06:35:31.931Z,7.21
2022-12-22T06:38:16.649Z,7.27
2022-12-22T06:41:01.488Z,7.34
2022-12-22T06:43:46.262Z,7.39
2022-12-22T06:46:31.035Z,7.49
2022-12-22T06:49:15.660Z,7.40
2022-12-22T06:52:00.410Z,7.37
2022-12-22T06:54:45.121Z,7.35
2022-12-22T06:57:29.829Z,7.22
2022-12-22T07:00:14.597Z,7.22
2022-12-22T07:02:59.319Z,7.32
2022-12-22T07:05:44.585Z,7.31
2022-12-22T07:08:29.356Z,7.40
2022-12-22T07:11:14.231Z,7.44
2022-12-22T07:13:58.796Z,7.48
2022-12-22T07:16:43.691Z,7.54
2022-12-22T07:19:28.758Z,7.57
2022-12-22T07:22:13.504Z,7.64
2022-12-22T07:24:58.316Z,7.71
2022-12-22T07:27:43.074Z,7.64
2022-12-22T07:30:27.816Z,7.82
2022-12-22T07:33:12.564Z,7.84
2022-12-22T07:35:57.292Z,7.86
2022-12-22T07:38:42.063Z,7.84
2022-12-22T07:41:26.939Z,7.96
2022-12-22T07:44:11.527Z,8.08
2022-12-22T07:46:56.377Z,8.13
2022-12-22T07:49:41.133Z,8.27
2022-12-22T07:52:25.811Z,8.15
2022-12-22T07:55:10.396Z,8.10
2022-12-22T07:57:55.093Z,8.18
2022-12-22T08:00:39.885Z,8.25
2022-12-22T08:03:24.688Z,8.27
2022-12-22T08:06:09.399Z,8.29
2022-12-22T08:08:54.248Z,8.26
2022-12-22T08:11:39.057Z,8.27
2022-12-22T08:14:23.644Z,8.31
2022-12-22T08:17:08.441Z,8.27
2022-12-22T08:19:53.046Z,8.45
2022-12-22T08:22:37.922Z,8.55
2022-12-22T08:25:22.553Z,8.59
2022-12-22T08:28:07.271Z,8.64
2022-12-22T08:30:52.120Z,8.79
2022-12-22T08:33:36.817Z,8.74
2022-12-22T08:36:21.719Z,8.71
2022-12-22T08:39:06.495Z,8.69
2022-12-22T08:41:51.412Z,9.09
2022-12-22T08:44:36.521Z,9.31
2022-12-22T08:47:21.549Z,9.55
2022-12-22T08:50:06.515Z,9.75
2022-12-22T08:52:51.221Z,10.15
2022-12-22T08:55:36.098Z,10.41
2022-12-22T08:58:20.747Z,10.39
2022-12-22T09:01:05.628Z,10.63
2022-12-22T09:03:50.635Z,10.72
2022-12-22T09:06:40.868Z,10.82
2022-12-22T09:09:26.356Z,10.77
2022-12-22T09:12:12.266Z,10.64
2022-12-22T09:14:57.105Z,10.81
2022-12-22T09:17:41.909Z,10.71
2022-12-22T09:20:26.666Z,10.43
2022-12-22T09:23:11.464Z,10.32
2022-12-22T09:25:56.131Z,9.85
2022-12-22T09:28:45.200Z,9.49
2022-12-22T09:31:34.845Z,9.58
2022-12-22T09:34:19.981Z,9.79
2022-12-22T09:37:04.810Z,9.96
2022-12-22T09:39:49.464Z,10.11
2022-12-22T09:42:34.458Z,10.29
2022-12-22T09:45:19.217Z,10.42
2022-12-22T09:48:03.909Z,10.47
2022-12-22T09:50:48.673Z,10.54
2022-12-22T09:53:33.402Z,10.61
2022-12-22T09:56:18.118Z,10.60
2022-12-22T09:59:02.867Z,10.65
2022-12-22T10:01:47.665Z,10.81
2022-12-22T10:04:32.891Z,10.72
2022-12-22T10:07:17.588Z,10.58
2022-12-22T10:10:02.240Z,10.39
2022-12-22T10:12:47.093Z,10.22
2022-12-22T10:15:31.693Z,10.28
2022-12-22T10:18:16.437Z,10.16
2022-12-22T10:21:01.264Z,10.17
2022-12-22T10:23:46.009Z,10.45
2022-12-22T10:26:31.817Z,10.55
2022-12-22T10:29:17.060Z,10.71
2022-12-22T10:32:02.040Z,10.75
2022-12-22T10:34:46.724Z,10.77
2022-12-22T10:37:31.472Z,10.93
2022-12-22T10:40:16.136Z,10.87
2022-12-22T10:43:01.062Z,10.90
2022-12-22T10:45:45.737Z,11.01
2022-12-22T10:48:31.399Z,10.87
2022-12-22T10:51:16.101Z,10.70
2022-12-22T10:54:00.908Z,10.47
2022-12-22T10:56:45.964Z,10.47
2022-12-22T10:59:30.811Z,10.64
2022-12-22T11:02:15.725Z,10.58
2022-12-22T11:05:01.002Z,10.37
2022-12-22T11:07:45.791Z,10.13
2022-12-22T11:10:30.633Z,10.24
2022-12-22T11:13:15.445Z,10.39
2022-12-22T11:16:00.057Z,10.41
2022-12-22T11:18:44.912Z,10.45
2022-12-22T11:21:29.612Z,10.34
2022-12-22T11:24:14.270Z,10.42
2022-12-22T11:26:59.215Z,10.55
2022-12-22T11:29:43.850Z,10.31
2022-12-22T11:32:28.555Z,10.26
2022-12-22T11:35:13.328Z,10.21
2022-12-22T11:37:58.079Z,10.38
2022-12-22T11:40:42.837Z,10.58
2022-12-22T11:43:27.568Z,10.82
2022-12-22T11:46:12.504Z,10.84
2022-12-22T11:48:57.747Z,10.80
2022-12-22T11:51:42.520Z,10.90
2022-12-22T11:54:27.354Z,11.06
2022-12-22T11:57:12.275Z,11.16
2022-12-22T11:59:56.891Z,11.18
2022-12-22T12:02:41.546Z,11.26
2022-12-22T12:05:26.288Z,11.34
2022-12-22T12:08:11.129Z,11.37
2022-12-22T12:10:55.770Z,11.50
2022-12-22T12:13:40.502Z,11.27
2022-12-22T12:16:25.393Z,11.37
2022-12-22T12:19:10.040Z,11.50
2022-12-22T12:21:54.755Z,11.27
2022-12-22T12:24:39.450Z,10.97
2022-12-22T12:27:24.251Z,10.90
2022-12-22T12:33:13.774Z,10.43
2022-12-22T12:35:58.625Z,10.56
2022-12-22T12:41:48.180Z,10.93
2022-12-22T12:44:32.961Z,10.93
2022-12-22T12:47:17.740Z,10.99
2022-12-22T12:50:02.513Z,10.98
2022-12-22T12:52:47.190Z,10.75
2022-12-22T12:55:33.215Z,10.74
2022-12-22T12:58:18.421Z,10.74
2022-12-22T13:01:03.166Z,10.20
2022-12-22T13:04:05.086Z,10.40
2022-12-22T13:06:51.256Z,10.61
2022-12-22T13:09:52.076Z,10.44
2022-12-22T13:12:36.822Z,10.52
2022-12-22T13:15:21.541Z,10.52
2022-12-22T13:18:06.308Z,10.21
2022-12-22T13:20:51.030Z,10.31
2022-12-22T13:23:51.341Z,10.40
2022-12-22T13:26:40.476Z,10.55
2022-12-22T13:29:25.298Z,10.52
2022-12-22T13:32:10.030Z,10.46
2022-12-22T13:35:29.901Z,10.47
2022-12-22T13:37:59.881Z,10.47
2022-12-22T13:40:44.530Z,10.48
2022-12-22T13:43:29.135Z,10.46
2022-12-22T13:46:14.012Z,10.52
2022-12-22T13:48:58.698Z,10.51
2022-12-22T13:51:43.440Z,10.48
2022-12-22T13:54:28.107Z,10.46
2022-12-22T13:57:13.567Z,10.47
2022-12-22T13:59:58.197Z,10.51
2022-12-22T14:02:43.176Z,10.47
2022-12-22T14:05:28.191Z,10.44
2022-12-22T14:08:13.081Z,10.45
2022-12-22T14:10:57.766Z,10.46
2022-12-22T14:13:42.997Z,10.47
2022-12-22T14:16:27.857Z,10.47
2022-12-22T14:19:12.823Z,10.43
2022-12-22T14:21:57.677Z,10.40
2022-12-22T14:24:42.264Z,10.35
2022-12-22T14:27:27.081Z,10.34
2022-12-22T14:30:11.679Z,10.30
2022-12-22T14:32:56.536Z,10.26
2022-12-22T14:35:41.091Z,10.25
2022-12-22T14:38:26.049Z,10.21
2022-12-22T14:41:10.674Z,10.15
2022-12-22T14:43:55.320Z,10.13
2022-12-22T14:46:40.147Z,10.02
2022-12-22T14:49:24.868Z,9.97
2022-12-22T14:52:09.574Z,9.90
2022-12-22T14:54:54.329Z,9.89
2022-12-22T14:57:39.208Z,9.88
2022-12-22T15:00:24.560Z,9.91
2022-12-22T15:03:09.330Z,9.88
2022-12-22T15:05:54.416Z,9.84
2022-12-22T15:08:39.379Z,9.86
2022-12-22T15:11:24.088Z,9.84
2022-12-22T15:14:08.813Z,9.84
2022-12-22T15:16:53.732Z,9.82
2022-12-22T15:19:38.475Z,9.82
2022-12-22T15:22:23.390Z,9.76
2022-12-22T15:25:08.023Z,9.72
2022-12-22T15:27:52.864Z,9.75
2022-12-22T15:30:37.644Z,9.71
2022-12-22T15:33:22.427Z,9.63
2022-12-22T15:36:07.074Z,9.61
2022-12-22T15:38:51.887Z,9.64
2022-12-22T15:41:36.702Z,9.60
2022-12-22T15:44:21.536Z,9.61
2022-12-22T15:47:06.276Z,9.54
2022-12-22T15:49:51.002Z,9.44
2022-12-22T15:52:35.856Z,9.46
2022-12-22T15:55:20.515Z,9.37
2022-12-22T15:58:05.321Z,9.32
2022-12-22T16:00:50.060Z,9.26
2022-12-22T16:03:35.027Z,9.32
2022-12-22T16:06:20.248Z,9.32
2022-12-22T16:09:04.949Z,9.21
2022-12-22T16:11:49.719Z,9.13
2022-12-22T16:14:39.361Z,9.06
2022-12-22T16:17:28.479Z,9.01
2022-12-22T16:20:13.420Z,8.98
2022-12-22T16:22:58.055Z,9.04
2022-12-22T16:25:42.965Z,9.05
2022-12-22T16:28:27.564Z,9.10
2022-12-22T16:31:12.340Z,9.14
2022-12-22T16:33:57.057Z,9.14
2022-12-22T16:36:41.814Z,9.10
2022-12-22T16:39:26.577Z,9.05
2022-12-22T16:42:11.246Z,9.10
2022-12-22T16:45:04.970Z,9.09
2022-12-22T16:47:49.831Z,9.09
2022-12-22T16:50:34.464Z,9.11
2022-12-22T16:53:19.426Z,9.09
2022-12-22T16:56:04.165Z,9.09
2022-12-22T16:58:48.893Z,9.06
2022-12-22T17:01:33.834Z,9.05
2022-12-22T17:04:18.884Z,9.04
2022-12-22T17:07:03.662Z,9.06
2022-12-22T17:09:48.267Z,9.02
2022-12-22T17:12:33.078Z,8.92
2022-12-22T17:15:17.879Z,8.88
2022-12-22T17:18:02.692Z,8.95
2022-12-22T17:20:47.412Z,8.94
2022-12-22T17:23:32.156Z,8.94
2022-12-22T17:26:16.843Z,8.96
2022-12-22T17:29:01.595Z,8.98
2022-12-22T17:31:46.411Z,9.04
2022-12-22T17:34:31.060Z,9.05
2022-12-22T17:37:15.878Z,9.03
2022-12-22T17:40:00.592Z,9.08
2022-12-22T17:42:45.419Z,9.11
2022-12-22T17:45:30.044Z,9.09
2022-12-22T17:48:14.888Z,9.09
2022-12-22T17:50:59.682Z,9.05
2022-12-22T17:53:44.507Z,9.04
2022-12-22T17:56:29.337Z,8.97
2022-12-22T17:59:13.966Z,8.97
2022-12-22T18:01:58.845Z,8.92
2022-12-22T18:04:43.919Z,8.86
2022-12-22T18:07:28.789Z,8.71
2022-12-22T18:10:13.453Z,8.66
2022-12-22T18:12:58.321Z,8.64
2022-12-22T18:15:42.961Z,8.63
2022-12-22T18:18:27.615Z,8.59
2022-12-22T18:21:12.363Z,8.57
2022-12-22T18:23:57.133Z,8.55
2022-12-22T18:26:42.039Z,8.57
2022-12-22T18:29:26.770Z,8.60
2022-12-22T18:32:11.622Z,8.68
2022-12-22T18:34:56.352Z,8.78
2022-12-22T18:37:41.165Z,8.78
2022-12-22T18:40:28.524Z,8.76
2022-12-22T18:43:13.718Z,8.69
2022-12-22T18:45:58.351Z,8.61
2022-12-22T18:48:43.165Z,8.54
2022-12-22T18:51:27.899Z,8.54
2022-12-22T18:54:16.974Z,8.62
2022-12-22T18:57:04.980Z,8.60
2022-12-22T18:59:49.796Z,8.65
2022-12-22T19:02:34.668Z,8.58
2022-12-22T19:05:19.885Z,8.52
2022-12-22T19:08:04.572Z,8.45
2022-12-22T19:10:49.436Z,8.35
2022-12-22T19:13:34.023Z,8.39
2022-12-22T19:16:18.859Z,8.41
2022-12-22T19:19:03.660Z,8.43
2022-12-22T19:21:48.421Z,8.54
2022-12-22T19:24:33.286Z,8.57
2022-12-22T19:27:17.893Z,8.43
2022-12-22T19:30:04.441Z,8.39
2022-12-22T19:32:49.728Z,8.29
2022-12-22T19:35:34.767Z,8.25
2022-12-22T19:38:19.403Z,8.33
2022-12-22T19:41:04.128Z,8.36
2022-12-22T19:43:48.981Z,8.36
2022-12-22T19:46:33.718Z,8.37
2022-12-22T19:49:18.917Z,8.43
2022-12-22T19:52:03.729Z,8.48
2022-12-22T19:54:49.082Z,8.45
2022-12-22T19:57:33.863Z,8.40
2022-12-22T20:00:18.619Z,8.37
2022-12-22T20:03:03.590Z,8.36
2022-12-22T20:05:48.684Z,8.37
2022-12-22T20:08:33.634Z,8.29
2022-12-22T20:11:18.300Z,8.28
2022-12-22T20:14:03.243Z,8.28
2022-12-22T20:16:47.853Z,8.31
2022-12-22T20:19:32.602Z,8.25
2022-12-22T20:22:17.315Z,8.23
2022-12-22T20:25:02.075Z,8.25
2022-12-22T20:27:46.873Z,8.21
2022-12-22T20:30:31.695Z,8.09
2022-12-22T20:33:16.699Z,8.10
2022-12-22T20:36:01.493Z,7.98
2022-12-22T20:38:46.260Z,7.93
2022-12-22T20:41:31.114Z,7.90
2022-12-22T20:44:16.027Z,7.89
2022-12-22T20:47:00.783Z,7.89
2022-12-22T20:49:45.543Z,7.79
2022-12-22T20:52:30.239Z,7.82
2022-12-22T20:55:14.955Z,7.74
2022-12-22T20:57:59.775Z,7.68
2022-12-22T21:00:44.487Z,7.55
2022-12-22T21:03:29.403Z,7.52
2022-12-22T21:06:14.743Z,7.54
2022-12-22T21:08:59.655Z,7.47
2022-12-22T21:11:44.324Z,7.50
2022-12-22T21:14:29.187Z,7.49
2022-12-22T21:17:13.937Z,7.46
2022-12-22T21:19:59.078Z,7.40
2022-12-22T21:22:43.822Z,7.32
2022-12-22T21:25:28.729Z,7.42
2022-12-22T21:28:13.574Z,7.43
2022-12-22T21:30:58.353Z,7.43
2022-12-22T21:33:43.031Z,7.39
2022-12-22T21:36:27.810Z,7.42
2022-12-22T21:39:12.575Z,7.37
2022-12-22T21:41:57.241Z,7.37
2022-12-22T21:44:42.079Z,7.38
2022-12-22T21:47:26.916Z,7.32
2022-12-22T21:50:11.616Z,7.31
2022-12-22T21:52:56.349Z,7.40
2022-12-22T21:55:41.092Z,7.38
2022-12-22T21:58:25.826Z,7.47
2022-12-22T22:01:11.536Z,7.31
2022-12-22T22:03:56.964Z,7.16
2022-12-22T22:06:41.544Z,7.20
2022-12-22T22:09:26.308Z,7.12
2022-12-22T22:12:11.166Z,7.08
2022-12-22T22:14:56.047Z,7.04
2022-12-22T22:17:40.864Z,7.17
2022-12-22T22:20:25.617Z,7.10
2022-12-22T22:23:10.531Z,7.26
2022-12-22T22:25:55.278Z,7.30
2022-12-22T22:28:39.986Z,7.29
2022-12-22T22:31:25.243Z,7.18
2022-12-22T22:34:09.990Z,7.27
2022-12-22T22:36:54.764Z,7.18
2022-12-22T22:39:39.548Z,7.08
2022-12-22T22:42:24.457Z,7.06
2022-12-22T22:45:09.209Z,7.07
2022-12-22T22:47:53.996Z,6.99
2022-12-22T22:50:38.622Z,7.14
2022-12-22T22:53:23.364Z,7.07
2022-12-22T22:56:08.095Z,7.19
2022-12-22T22:58:52.969Z,7.28
2022-12-22T23:01:37.669Z,7.31
2022-12-22T23:04:22.482Z,7.28
2022-12-22T23:07:07.097Z,7.18
2022-12-22T23:09:51.876Z,7.20
2022-12-22T23:12:36.502Z,7.26
2022-12-22T23:15:21.376Z,7.34
2022-12-22T23:18:06.144Z,7.23
2022-12-22T23:20:50.948Z,7.20
2022-12-22T23:23:35.689Z,7.22
2022-12-22T23:26:20.381Z,7.20
2022-12-22T23:29:05.065Z,7.30
2022-12-22T23:31:49.952Z,7.33
2022-12-22T23:34:34.709Z,7.31
2022-12-22T23:37:19.970Z,7.43
2022-12-22T23:40:42.107Z,7.52
2022-12-22T23:43:10.127Z,7.68
2022-12-22T23:45:54.643Z,7.53
2022-12-22T23:48:39.557Z,7.34
2022-12-22T23:51:24.187Z,7.27
2022-12-22T23:54:09.021Z,7.24
2022-12-22T23:56:53.616Z,7.20
2022-12-22T23:59:38.461Z,7.21
